createdAt,value
2019-04-07T00:01:53.713Z,73.70
2019-04-07T00:04:23.963Z,73.33
2019-04-07T00:06:54.556Z,72.20
2019-04-07T00:09:24.778Z,67.63
2019-04-07T00:11:55.222Z,67.17
2019-04-07T00:14:26.032Z,73.23
2019-04-07T00:16:56.888Z,70.10
2019-04-07T00:19:28.298Z,76.63
2019-04-07T00:21:59.324Z,78.20
2019-04-07T00:24:29.959Z,73.47
2019-04-07T00:27:00.613Z,74.60
2019-04-07T00:29:31.512Z,69.90
2019-04-07T00:32:02.477Z,72.30
2019-04-07T00:34:32.716Z,84.63
2019-04-07T00:37:03.133Z,71.03
2019-04-07T00:39:33.530Z,78.53
2019-04-07T00:42:03.975Z,81.17
2019-04-07T00:44:34.426Z,80.23
2019-04-07T00:47:05.245Z,79.90
2019-04-07T00:49:35.752Z,80.80
2019-04-07T00:52:07.109Z,77.70
2019-04-07T00:54:37.883Z,82.60
2019-04-07T00:57:08.257Z,82.22
2019-04-07T00:59:38.632Z,79.63
2019-04-07T01:02:09.070Z,82.73
2019-04-07T01:04:39.792Z,91.57
2019-04-07T01:07:10.263Z,88.53
2019-04-07T01:09:40.489Z,80.43
2019-04-07T01:12:10.758Z,82.80
2019-04-07T01:14:41.666Z,75.93
2019-04-07T01:17:12.594Z,88.70
2019-04-07T01:19:44.265Z,83.00
2019-04-07T01:22:15.414Z,87.67
2019-04-07T01:24:46.132Z,90.10
2019-04-07T01:27:16.466Z,84.60
2019-04-07T01:29:47.528Z,86.13
2019-04-07T01:32:21.258Z,86.33
2019-04-07T01:34:51.591Z,87.97
2019-04-07T01:37:22.174Z,86.23
2019-04-07T01:39:52.670Z,89.00
2019-04-07T01:42:41.888Z,90.80
2019-04-07T01:45:30.267Z,91.97
2019-04-07T01:48:29.287Z,87.60
2019-04-07T01:51:32.179Z,76.13
2019-04-07T01:54:20.781Z,94.33
2019-04-07T01:57:13.464Z,80.43
2019-04-07T02:00:20.714Z,78.30
2019-04-07T02:03:10.103Z,89.33
2019-04-07T02:06:08.073Z,86.47
2019-04-07T02:08:51.791Z,75.87
2019-04-07T02:11:50.472Z,83.60
2019-04-07T02:14:42.796Z,86.43
2019-04-07T02:17:18.357Z,83.57
2019-04-07T02:20:07.903Z,93.43
2019-04-07T02:22:57.383Z,92.70
2019-04-07T02:25:59.331Z,85.07
2019-04-07T02:28:48.583Z,85.60
2019-04-07T02:31:27.445Z,85.50
2019-04-07T02:34:12.294Z,83.37
2019-04-07T02:37:00.324Z,92.57
2019-04-07T02:39:48.889Z,90.37
2019-04-07T02:42:44.581Z,90.67
2019-04-07T02:45:36.752Z,83.67
2019-04-07T02:48:41.505Z,80.83
2019-04-07T02:51:43.770Z,98.27
2019-04-07T02:54:48.260Z,89.80
2019-04-07T02:57:44.543Z,91.73
2019-04-07T03:00:24.654Z,105.90
2019-04-07T03:03:22.941Z,92.57
2019-04-07T03:06:21.002Z,87.23
2019-04-07T03:09:16.861Z,87.43
2019-04-07T03:11:59.589Z,97.03
2019-04-07T03:14:35.848Z,94.27
2019-04-07T03:17:25.655Z,93.27
2019-04-07T03:20:15.368Z,81.27
2019-04-07T03:23:14.655Z,84.10
2019-04-07T03:26:02.943Z,96.07
2019-04-07T03:28:58.298Z,93.43
2019-04-07T03:31:51.624Z,85.73
2019-04-07T03:34:40.055Z,92.83
2019-04-07T03:37:36.176Z,82.23
2019-04-07T03:40:16.443Z,83.20
2019-04-07T03:43:15.398Z,96.03
2019-04-07T03:46:00.700Z,97.47
2019-04-07T03:48:38.147Z,97.13
2019-04-07T03:51:30.307Z,109.43
2019-04-07T03:54:12.306Z,97.40
2019-04-07T03:57:01.599Z,82.50
2019-04-07T04:00:06.056Z,84.50
2019-04-07T04:02:55.292Z,92.63
2019-04-07T04:05:43.481Z,85.33
2019-04-07T04:08:32.544Z,76.20
2019-04-07T04:11:09.605Z,82.03
2019-04-07T04:13:47.816Z,82.57
2019-04-07T04:16:22.097Z,89.33
2019-04-07T04:18:52.589Z,78.10
2019-04-07T04:21:24.209Z,85.40
2019-04-07T04:23:55.009Z,76.50
2019-04-07T04:26:25.507Z,85.77
2019-04-07T04:28:56.581Z,79.40
2019-04-07T04:31:27.372Z,86.90
2019-04-07T04:33:58.046Z,75.93
2019-04-07T04:36:29.417Z,84.13
2019-04-07T04:39:00.548Z,87.07
2019-04-07T04:41:30.910Z,86.07
2019-04-07T04:44:02.170Z,85.87
2019-04-07T04:46:32.734Z,76.73
2019-04-07T04:49:04.190Z,83.73
2019-04-07T04:51:39.108Z,84.07
2019-04-07T04:54:07.301Z,78.67
2019-04-07T04:56:37.953Z,86.50
2019-04-07T04:59:08.191Z,78.93
2019-04-07T05:01:39.726Z,68.97
2019-04-07T05:04:10.032Z,77.27
2019-04-07T05:06:41.330Z,82.67
2019-04-07T05:09:12.291Z,90.03
2019-04-07T05:11:42.889Z,80.67
2019-04-07T05:14:13.128Z,87.20
2019-04-07T05:16:43.598Z,80.67
2019-04-07T05:19:14.302Z,76.80
2019-04-07T05:21:44.578Z,78.13
2019-04-07T05:24:15.731Z,81.07
2019-04-07T05:26:46.505Z,82.53
2019-04-07T05:29:17.045Z,81.93
2019-04-07T05:31:47.500Z,78.57
2019-04-07T05:34:20.561Z,75.83
2019-04-07T05:36:50.052Z,67.53
2019-04-07T05:39:20.775Z,66.00
2019-04-07T05:41:51.097Z,76.93
2019-04-07T05:44:21.747Z,73.90
2019-04-07T05:46:52.745Z,90.20
2019-04-07T05:49:24.253Z,77.30
2019-04-07T05:51:54.665Z,76.30
2019-04-07T05:54:24.966Z,74.50
2019-04-07T05:56:58.612Z,69.77
2019-04-07T05:59:27.622Z,67.30
2019-04-07T06:02:01.329Z,69.13
2019-04-07T06:04:30.361Z,83.53
2019-04-07T06:07:00.925Z,75.23
2019-04-07T06:09:33.667Z,68.97
2019-04-07T06:12:05.922Z,68.60
2019-04-07T06:14:34.820Z,75.50
2019-04-07T06:17:05.097Z,76.77
2019-04-07T06:19:40.558Z,79.73
2019-04-07T06:22:08.552Z,74.70
2019-04-07T06:24:39.448Z,75.33
2019-04-07T06:27:09.818Z,74.77
2019-04-07T06:29:39.963Z,81.30
2019-04-07T06:32:11.220Z,84.47
2019-04-07T06:34:43.567Z,82.27
2019-04-07T06:37:14.475Z,86.17
2019-04-07T06:39:47.027Z,83.60
2019-04-07T06:42:17.585Z,96.70
2019-04-07T06:44:50.129Z,99.33
2019-04-07T06:47:39.735Z,104.23
2019-04-07T06:50:20.567Z,106.87
2019-04-07T06:53:04.420Z,99.07
2019-04-07T06:56:01.252Z,92.70
2019-04-07T06:58:56.833Z,98.80
2019-04-07T07:01:49.317Z,93.87
2019-04-07T07:04:57.214Z,89.73
2019-04-07T07:07:45.816Z,106.90
2019-04-07T07:10:47.538Z,101.03
2019-04-07T07:13:34.768Z,103.93
2019-04-07T07:16:42.383Z,104.13
2019-04-07T07:19:29.590Z,103.50
2019-04-07T07:22:16.135Z,109.30
2019-04-07T07:24:47.138Z,109.23
2019-04-07T07:27:17.654Z,106.87
2019-04-07T07:29:51.663Z,105.37
2019-04-07T07:32:20.557Z,105.10
2019-04-07T07:34:50.870Z,109.03
2019-04-07T07:37:22.969Z,105.80
2019-04-07T07:39:53.361Z,105.17
2019-04-07T07:42:24.442Z,109.80
2019-04-07T07:44:54.840Z,114.37
2019-04-07T07:47:26.311Z,120.80
2019-04-07T07:49:56.571Z,115.73
2019-04-07T07:52:27.146Z,112.43
2019-04-07T07:54:59.777Z,108.03
2019-04-07T07:57:29.352Z,108.53
2019-04-07T08:00:00.431Z,106.67
2019-04-07T08:02:31.914Z,115.90
2019-04-07T08:05:03.106Z,114.07
2019-04-07T08:07:33.609Z,104.17
2019-04-07T08:10:04.851Z,109.03
2019-04-07T08:12:35.846Z,109.47
2019-04-07T08:15:07.059Z,102.03
2019-04-07T08:17:37.667Z,106.87
2019-04-07T08:20:08.291Z,110.30
2019-04-07T08:22:42.386Z,106.80
2019-04-07T08:25:11.041Z,104.93
2019-04-07T08:27:41.953Z,107.77
2019-04-07T08:30:13.771Z,109.40
2019-04-07T08:32:44.275Z,107.00
2019-04-07T08:35:15.370Z,105.20
2019-04-07T08:37:47.908Z,114.23
2019-04-07T08:40:18.798Z,105.00
2019-04-07T08:42:50.172Z,105.17
2019-04-07T08:45:23.006Z,115.40
2019-04-07T08:47:53.725Z,105.63
2019-04-07T08:50:27.733Z,113.07
2019-04-07T08:52:56.683Z,110.90
2019-04-07T08:55:28.239Z,109.50
2019-04-07T08:58:02.223Z,105.63
2019-04-07T09:00:31.597Z,108.83
2019-04-07T09:03:07.764Z,110.50
2019-04-07T09:05:34.101Z,105.57
2019-04-07T09:08:06.054Z,101.27
2019-04-07T09:10:42.975Z,96.60
2019-04-07T09:13:13.779Z,101.47
2019-04-07T09:15:53.485Z,95.13
2019-04-07T09:18:32.071Z,99.93
2019-04-07T09:21:35.519Z,98.03
2019-04-07T09:24:17.696Z,94.23
2019-04-07T09:27:17.174Z,97.10
2019-04-07T09:30:10.446Z,100.60
2019-04-07T09:33:09.634Z,102.50
2019-04-07T09:35:59.403Z,97.17
2019-04-07T09:38:50.247Z,93.13
2019-04-07T09:41:45.006Z,95.07
2019-04-07T09:44:37.323Z,92.80
2019-04-07T09:47:37.980Z,90.83
2019-04-07T09:50:28.547Z,87.17
2019-04-07T09:53:33.960Z,92.33
2019-04-07T09:56:16.213Z,88.13
2019-04-07T09:59:04.320Z,88.97
2019-04-07T10:01:52.648Z,95.63
2019-04-07T10:04:42.459Z,88.97
2019-04-07T10:07:29.505Z,87.13
2019-04-07T10:10:31.289Z,90.17
2019-04-07T10:13:21.567Z,81.50
2019-04-07T10:16:23.172Z,82.90
2019-04-07T10:19:15.375Z,80.23
2019-04-07T10:22:03.624Z,85.43
2019-04-07T10:24:51.766Z,83.43
2019-04-07T10:27:41.527Z,83.53
2019-04-07T10:30:27.014Z,84.93
2019-04-07T10:33:14.829Z,85.87
2019-04-07T10:36:13.695Z,88.13
2019-04-07T10:39:06.176Z,85.40
2019-04-07T10:41:53.293Z,89.53
2019-04-07T10:44:58.328Z,83.43
2019-04-07T10:48:02.830Z,86.20
2019-04-07T10:50:51.979Z,87.67
2019-04-07T10:53:31.301Z,75.93
2019-04-07T10:56:24.284Z,73.30
2019-04-07T10:59:12.665Z,76.67
2019-04-07T11:02:14.493Z,77.77
2019-04-07T11:05:02.957Z,73.33
2019-04-07T11:08:10.574Z,73.40
2019-04-07T11:10:58.780Z,73.77
2019-04-07T11:13:42.963Z,73.63
2019-04-07T11:16:31.312Z,70.40
2019-04-07T11:19:08.923Z,73.83
2019-04-07T11:21:46.687Z,71.30
2019-04-07T11:24:35.138Z,73.67
2019-04-07T11:27:22.915Z,71.20
2019-04-07T11:30:18.135Z,73.13
2019-04-07T11:32:56.532Z,72.97
2019-04-07T11:35:49.068Z,74.30
2019-04-07T11:38:28.531Z,72.93
2019-04-07T11:41:16.987Z,73.97
2019-04-07T11:43:54.642Z,75.03
2019-04-07T11:46:46.896Z,75.87
2019-04-07T11:49:42.605Z,75.67
2019-04-07T11:52:37.901Z,73.17
2019-04-07T11:55:31.337Z,73.97
2019-04-07T11:58:31.459Z,76.50
2019-04-07T12:01:24.090Z,78.73
2019-04-07T12:04:16.054Z,72.00
2019-04-07T12:07:11.175Z,78.60
2019-04-07T12:10:00.818Z,71.87
2019-04-07T12:12:56.031Z,76.50
2019-04-07T12:15:56.848Z,70.33
2019-04-07T12:18:55.623Z,73.60
2019-04-07T12:21:32.811Z,73.43
2019-04-07T12:24:25.917Z,71.73
2019-04-07T12:27:13.653Z,72.83
2019-04-07T12:29:55.949Z,70.47
2019-04-07T12:32:34.236Z,71.30
2019-04-07T12:35:19.522Z,67.63
2019-04-07T12:38:16.554Z,67.83
2019-04-07T12:41:14.363Z,68.90
2019-04-07T12:43:56.206Z,60.37
2019-04-07T12:46:51.412Z,68.13
2019-04-07T12:49:53.181Z,73.30
2019-04-07T12:53:00.515Z,67.83
2019-04-07T12:56:03.702Z,72.23
2019-04-07T12:59:05.077Z,69.93
2019-04-07T13:01:43.848Z,72.13
2019-04-07T13:04:35.333Z,71.03
2019-04-07T13:07:40.318Z,69.67
2019-04-07T13:10:23.696Z,74.10
2019-04-07T13:13:18.757Z,67.97
2019-04-07T13:16:21.207Z,68.73
2019-04-07T13:19:10.317Z,70.53
2019-04-07T13:22:02.951Z,70.33
2019-04-07T13:25:07.894Z,70.60
2019-04-07T13:27:52.075Z,67.17
2019-04-07T13:30:41.935Z,65.10
2019-04-07T13:33:34.886Z,66.17
2019-04-07T13:36:23.492Z,74.30
2019-04-07T13:39:22.254Z,77.07
2019-04-07T13:42:11.463Z,76.33
2019-04-07T13:45:02.507Z,74.67
2019-04-07T13:47:48.808Z,70.17
2019-04-07T13:50:44.904Z,73.13
2019-04-07T13:53:50.083Z,75.80
2019-04-07T13:56:47.981Z,72.70
2019-04-07T13:59:28.402Z,76.60
2019-04-07T14:02:05.326Z,75.37
2019-04-07T14:05:07.588Z,68.87
2019-04-07T14:07:55.223Z,73.93
2019-04-07T14:10:34.665Z,75.23
2019-04-07T14:13:25.659Z,77.07
2019-04-07T14:16:14.334Z,73.23
2019-04-07T14:18:54.326Z,75.53
2019-04-07T14:21:42.899Z,80.83
2019-04-07T14:24:35.113Z,78.83
2019-04-07T14:27:20.832Z,73.92
2019-04-07T14:29:58.218Z,75.50
2019-04-07T14:32:34.795Z,76.97
2019-04-07T14:35:24.223Z,81.30
2019-04-07T14:38:20.055Z,83.43
2019-04-07T14:41:13.952Z,82.90
2019-04-07T14:44:02.034Z,86.77
2019-04-07T14:46:41.357Z,84.17
2019-04-07T14:49:24.653Z,86.13
2019-04-07T14:52:17.699Z,82.43
2019-04-07T14:55:06.450Z,82.30
2019-04-07T14:58:06.500Z,86.20
2019-04-07T15:01:04.843Z,87.00
2019-04-07T15:03:33.881Z,85.60
2019-04-07T15:06:04.341Z,83.77
2019-04-07T15:09:07.802Z,85.47
2019-04-07T15:11:41.167Z,87.23
2019-04-07T15:14:12.779Z,85.40
2019-04-07T15:16:44.763Z,89.33
2019-04-07T15:19:15.850Z,90.03
2019-04-07T15:21:48.837Z,90.87
2019-04-07T15:24:19.894Z,94.07
2019-04-07T15:26:50.290Z,91.30
2019-04-07T15:29:22.111Z,90.30
2019-04-07T15:31:53.159Z,87.67
2019-04-07T15:34:24.166Z,92.27
2019-04-07T15:36:55.650Z,85.27
2019-04-07T15:39:29.605Z,87.10
2019-04-07T15:41:57.986Z,86.97
2019-04-07T15:44:29.100Z,81.77
2019-04-07T15:46:59.570Z,80.67
2019-04-07T15:49:29.838Z,85.47
2019-04-07T15:52:01.249Z,87.57
2019-04-07T15:54:32.141Z,84.70
2019-04-07T15:57:02.545Z,86.13
2019-04-07T15:59:33.058Z,89.43
2019-04-07T16:02:04.398Z,94.77
2019-04-07T16:04:35.127Z,91.07
2019-04-07T16:07:05.357Z,87.97
2019-04-07T16:09:45.290Z,88.37
2019-04-07T16:12:08.212Z,90.27
2019-04-07T16:14:40.168Z,94.20
2019-04-07T16:17:11.254Z,91.83
2019-04-07T16:19:45.075Z,94.53
2019-04-07T16:22:14.690Z,94.70
2019-04-07T16:24:46.329Z,94.33
2019-04-07T16:27:17.263Z,96.30
2019-04-07T16:29:47.924Z,90.03
2019-04-07T16:32:18.315Z,93.80
2019-04-07T16:34:49.732Z,90.53
2019-04-07T16:37:20.381Z,90.73
2019-04-07T16:39:51.314Z,95.20
2019-04-07T16:42:21.725Z,94.63
2019-04-07T16:44:52.648Z,95.40
2019-04-07T16:47:25.861Z,96.77
2019-04-07T16:49:54.867Z,95.90
2019-04-07T16:52:25.511Z,104.00
2019-04-07T16:54:56.043Z,98.20
2019-04-07T16:57:30.167Z,98.00
2019-04-07T16:59:58.385Z,98.53
2019-04-07T17:02:29.503Z,116.07
2019-04-07T17:05:01.535Z,109.77
2019-04-07T17:07:32.871Z,112.27
2019-04-07T17:10:05.009Z,109.73
2019-04-07T17:12:35.624Z,120.50
2019-04-07T17:15:07.593Z,125.87
2019-04-07T17:17:38.849Z,135.20
2019-04-07T17:20:09.951Z,143.87
2019-04-07T17:22:40.389Z,182.57
2019-04-07T17:25:12.182Z,199.00
2019-04-07T17:27:42.780Z,184.80
2019-04-07T17:30:17.118Z,175.20
2019-04-07T17:32:49.741Z,176.30
2019-04-07T17:35:21.282Z,187.73
2019-04-07T17:37:52.264Z,201.67
2019-04-07T17:40:26.814Z,188.60
2019-04-07T17:43:08.386Z,196.80
2019-04-07T17:46:02.573Z,201.77
2019-04-07T17:48:55.306Z,166.83
2019-04-07T17:51:37.988Z,199.73
2019-04-07T17:54:43.221Z,192.93
2019-04-07T17:57:35.925Z,182.70
2019-04-07T18:00:41.393Z,173.93
2019-04-07T18:03:44.176Z,176.53
2019-04-07T18:06:45.282Z,172.90
2019-04-07T18:09:34.546Z,170.90
2019-04-07T18:12:14.583Z,175.03
2019-04-07T18:15:15.081Z,173.23
2019-04-07T18:18:04.003Z,177.87
2019-04-07T18:20:49.728Z,155.90
2019-04-07T18:23:39.823Z,154.43
2019-04-07T18:26:29.732Z,164.17
2019-04-07T18:29:10.172Z,161.97
2019-04-07T18:31:49.118Z,160.63
2019-04-07T18:34:34.887Z,166.20
2019-04-07T18:37:26.020Z,156.03
2019-04-07T18:40:26.302Z,153.10
2019-04-07T18:43:18.031Z,149.50
2019-04-07T18:46:07.196Z,148.33
2019-04-07T18:49:04.871Z,171.40
2019-04-07T18:51:56.923Z,159.30
2019-04-07T18:54:46.489Z,159.57
2019-04-07T18:57:31.655Z,136.10
2019-04-07T19:00:30.175Z,140.17
2019-04-07T19:03:09.632Z,158.33
2019-04-07T19:05:46.693Z,157.37
2019-04-07T19:08:34.959Z,161.57
2019-04-07T19:11:24.357Z,179.90
2019-04-07T19:14:25.977Z,152.10
2019-04-07T19:16:54.589Z,159.67
2019-04-07T19:19:44.073Z,162.57
2019-04-07T19:22:40.597Z,164.30
2019-04-07T19:25:35.676Z,163.23
2019-04-07T19:28:34.043Z,188.50
2019-04-07T19:31:20.271Z,146.03
2019-04-07T19:34:12.963Z,147.23
2019-04-07T19:37:08.841Z,168.40
2019-04-07T19:40:02.710Z,154.47
2019-04-07T19:42:56.411Z,175.83
2019-04-07T19:45:35.053Z,169.73
2019-04-07T19:48:13.456Z,177.43
2019-04-07T19:51:03.168Z,162.00
2019-04-07T19:53:53.599Z,179.57
2019-04-07T19:56:52.776Z,174.03
2019-04-07T19:59:42.976Z,165.83
2019-04-07T20:02:38.871Z,169.40
2019-04-07T20:05:38.738Z,170.37
2019-04-07T20:08:25.487Z,195.10
2019-04-07T20:11:32.528Z,165.07
2019-04-07T20:14:27.045Z,157.43
2019-04-07T20:17:19.713Z,150.53
2019-04-07T20:20:23.723Z,156.77
2019-04-07T20:23:18.191Z,157.20
2019-04-07T20:26:07.988Z,174.43
2019-04-07T20:28:56.985Z,163.07
2019-04-07T20:31:37.501Z,162.77
2019-04-07T20:34:40.104Z,153.27
2019-04-07T20:37:13.730Z,144.13
2019-04-07T20:40:03.516Z,142.37
2019-04-07T20:42:41.548Z,163.47
2019-04-07T20:45:24.001Z,175.43
2019-04-07T20:48:12.253Z,170.93
2019-04-07T20:51:00.382Z,173.03
2019-04-07T20:53:49.991Z,170.50
2019-04-07T20:56:44.636Z,152.47
2019-04-07T20:59:33.333Z,142.60
2019-04-07T21:02:23.390Z,149.07
2019-04-07T21:05:12.368Z,149.53
2019-04-07T21:08:01.106Z,165.17
2019-04-07T21:10:46.883Z,145.10
2019-04-07T21:13:27.362Z,170.20
2019-04-07T21:16:08.191Z,156.70
2019-04-07T21:19:04.178Z,139.77
2019-04-07T21:21:43.888Z,134.67
2019-04-07T21:24:32.352Z,136.47
2019-04-07T21:27:33.908Z,163.53
2019-04-07T21:30:08.664Z,137.13
2019-04-07T21:33:00.738Z,169.23
2019-04-07T21:35:51.382Z,154.90
2019-04-07T21:38:47.486Z,147.97
2019-04-07T21:41:33.244Z,152.13
2019-04-07T21:44:34.643Z,142.97
2019-04-07T21:47:29.834Z,129.97
2019-04-07T21:50:09.708Z,158.17
2019-04-07T21:52:59.017Z,132.57
2019-04-07T21:55:47.681Z,125.57
2019-04-07T21:58:39.921Z,132.30
2019-04-07T22:01:37.781Z,153.23
2019-04-07T22:04:30.165Z,134.57
2019-04-07T22:07:22.148Z,120.07
2019-04-07T22:09:55.326Z,104.93
2019-04-07T22:12:28.670Z,117.03
2019-04-07T22:14:57.454Z,115.20
2019-04-07T22:17:27.700Z,124.83
2019-04-07T22:19:58.528Z,135.07
2019-04-07T22:22:29.203Z,133.13
2019-04-07T22:25:01.213Z,120.67
2019-04-07T22:27:32.567Z,138.00
2019-04-07T22:30:06.384Z,109.57
2019-04-07T22:32:36.931Z,124.30
2019-04-07T22:35:08.409Z,132.07
2019-04-07T22:37:38.661Z,137.23
2019-04-07T22:40:14.970Z,124.37
2019-04-07T22:42:45.985Z,134.57
2019-04-07T22:45:17.354Z,119.97
2019-04-07T22:47:51.410Z,137.73
2019-04-07T22:50:20.143Z,120.67
2019-04-07T22:52:52.144Z,114.80
2019-04-07T22:55:22.825Z,114.37
2019-04-07T22:57:53.733Z,118.87
2019-04-07T23:00:25.577Z,129.43
2019-04-07T23:02:55.824Z,129.63
2019-04-07T23:05:26.068Z,126.50
2019-04-07T23:07:56.404Z,134.80
2019-04-07T23:10:27.403Z,113.73
2019-04-07T23:12:57.856Z,127.33
2019-04-07T23:15:39.562Z,128.63
2019-04-07T23:18:00.113Z,126.73
2019-04-07T23:20:31.164Z,141.87
2019-04-07T23:23:02.647Z,140.03
2019-04-07T23:25:36.572Z,140.00
2019-04-07T23:28:10.398Z,131.53
2019-04-07T23:30:40.902Z,136.10
2019-04-07T23:33:11.186Z,134.53
2019-04-07T23:35:41.839Z,146.93
2019-04-07T23:38:12.102Z,139.27
2019-04-07T23:40:42.401Z,130.93
2019-04-07T23:43:13.212Z,149.80
2019-04-07T23:45:44.170Z,141.33
2019-04-07T23:48:15.796Z,134.30
2019-04-07T23:50:46.553Z,139.50
2019-04-07T23:53:53.679Z,159.00
2019-04-07T23:56:24.133Z,135.30
2019-04-07T23:58:54.493Z,147.53
